Latest Weather Observations for Shark Bay Airport

IDW60801

Issued at 5:43 am WST Friday 22 January 2021 (issued every 10 minutes, with the page automatically refreshed every 10 minutes)

About weather observations | Map of weather stations | Latest weather observations for WA | Other Formats
Station Details ID: 006105 Name: SHARK BAY AIRPORT Lat: -25.89 Lon: 113.58 Height: 33.8 m
Data from the previous 72 hours. | See also: Recent months at Shark Bay Airport
Date/Time
WST
Temp
°C
App
Temp
°C
Dew
Point
°C
Rel
Hum
%
Delta-T
°C
Wind Press
QNH
hPa
Press
MSL
hPa
Rain since
9am
mm
Dir  Spd
km/h
Gust
km/h
Spd
kts
Gust
kts
22/05:30am 23.5 23.9 21.0 86 1.6 SSW 20 26 11 14 1004.8 1004.6 0.0
22/05:00am 23.6 23.7 21.1 86 1.6 SW 22 35 12 19 1004.7 1004.5 0.0
22/04:30am 23.5 23.9 21.0 86 1.6 SW 20 30 11 16 1004.4 1004.2 0.0
22/04:00am 23.5 23.6 21.2 87 1.5 SW 22 32 12 17 1004.5 1004.3 0.0
22/03:30am 23.4 24.0 21.3 88 1.4 SW 20 30 11 16 1004.6 1004.4 0.0
22/03:00am 23.4 24.0 21.3 88 1.4 SW 20 28 11 15 1004.8 1004.6 0.0
22/02:30am 23.4 24.0 21.3 88 1.4 SSW 20 28 11 15 1004.9 1004.7 0.0
22/02:00am 23.3 23.8 21.2 88 1.4 SSW 20 28 11 15 1005.2 1005.0 0.0
22/01:30am 23.3 22.9 21.0 87 1.5 SSW 24 33 13 18 1005.3 1005.1 0.0
22/01:00am 23.3 23.8 21.2 88 1.4 SSW 20 28 11 15 1005.6 1005.4 0.0
22/12:30am 23.3 23.7 21.0 87 1.5 SSW 20 28 11 15 1005.7 1005.5 0.0
22/12:00am 23.3 23.6 20.8 86 1.6 SSW 20 28 11 15 1005.9 1005.7 0.0
 
Date/Time
WST
Temp
°C
App
Temp
°C
Dew
Point
°C
Rel
Hum
%
Delta-T
°C
Wind Press
QNH
hPa
Press
MSL
hPa
Rain since
9am
mm
Dir  Spd
km/h
Gust
km/h
Spd
kts
Gust
kts
21/11:30pm 23.4 23.9 20.9 86 1.6 SSW 19 30 10 16 1006.1 1005.9 0.0
21/11:00pm 23.6 22.8 20.1 81 2.3 S 24 32 13 17 1006.5 1006.3 0.0
21/10:30pm 24.4 24.7 20.7 80 2.4 SSW 20 30 11 16 1006.8 1006.6 0.0
21/10:00pm 24.3 23.5 20.8 81 2.3 SSW 26 35 14 19 1006.8 1006.6 0.0
21/09:30pm 24.2 23.4 20.9 82 2.2 SSW 26 35 14 19 1006.4 1006.2 0.0
21/09:00pm 24.3 23.1 20.8 81 2.3 SSW 28 35 15 19 1006.2 1006.0 0.0
21/08:30pm 24.6 23.8 20.9 80 2.4 SSW 26 35 14 19 1006.1 1005.9 0.0
21/08:00pm 24.8 24.0 20.9 79 2.6 SSW 26 35 14 19 1005.8 1005.6 0.0
21/07:30pm 25.4 24.2 20.9 76 3.0 SSW 28 39 15 21 1005.6 1005.4 0.0
21/07:00pm 26.1 24.1 20.7 72 3.6 SSW 32 43 17 23 1005.4 1005.2 0.0
21/06:30pm 27.1 24.6 20.2 66 4.5 SSW 33 41 18 22 1005.1 1004.9 0.0
21/06:00pm 28.2 25.6 20.0 61 5.4 SSW 33 44 18 24 1004.8 1004.6 0.0
21/05:30pm 29.3 26.8 20.2 58 6.0 SSW 33 43 18 23 1004.7 1004.5 0.0
21/05:00pm 30.2 27.0 18.6 49 7.5 SSW 33 44 18 24 1004.8 1004.6 0.0
21/04:30pm 31.3 28.9 19.9 50 7.5 SSW 32 43 17 23 1005.0 1004.8 0.0
21/04:00pm 31.4 29.5 19.4 49 7.9 SSW 28 43 15 23 1005.3 1005.1 0.0
21/03:30pm 31.7 29.1 18.7 46 8.4 SSW 30 39 16 21 1005.6 1005.4 0.0
21/03:00pm 32.5 29.9 17.9 41 9.4 SSW 28 35 15 19 1005.9 1005.7 0.0
21/02:30pm 32.5 29.8 17.5 40 9.6 SSW 28 39 15 21 1006.1 1005.9 0.0
21/02:00pm 33.0 30.6 16.4 37 10.5 SSW 24 33 13 18 1006.5 1006.3 0.0
21/01:30pm 32.4 29.7 17.5 41 9.5 SSW 28 37 15 20 1006.9 1006.7 0.0
21/01:00pm 31.9 29.4 18.1 43 8.9 SSW 28 37 15 20 1007.3 1007.1 0.0
21/12:30pm 32.0 29.7 19.3 47 8.3 SW 30 39 16 21 1007.5 1007.3 0.0
21/12:00pm 32.2 30.2 18.4 44 9.0 SSW 26 37 14 20 1008.0 1007.8 0.0
21/11:30am 32.0 31.1 19.9 48 8.0 SSW 24 35 13 19 1008.3 1008.1 0.0
21/11:00am 30.5 29.9 19.8 52 7.0 S 22 32 12 17 1008.7 1008.5 0.0
21/10:30am 30.1 28.9 19.2 52 7.1 S 24 35 13 19 1009.0 1008.8 0.0
21/10:00am 28.8 27.3 19.4 56 6.1 SSE 26 37 14 20 1009.4 1009.2 0.0
21/09:30am 28.6 26.5 19.8 59 5.8 S 30 46 16 25 1009.6 1009.4 0.0
21/09:00am 26.8 24.2 19.4 64 4.8 S 32 46 17 25 1009.8 1009.6 0.0
21/08:30am 26.1 24.0 19.7 68 4.1 S 30 39 16 21 1009.9 1009.7 0.0
21/08:00am 25.6 24.3 19.9 70 3.7 SSE 26 39 14 21 1009.9 1009.7 0.0
21/07:30am 24.0 21.6 19.1 74 3.1 SSE 30 39 16 21 1010.0 1009.8 0.0
21/07:00am 23.4 23.5 20.3 83 2.0 SE 20 28 11 15 1010.1 1009.9 0.0
21/06:30am 21.7 23.0 20.2 91 1.0 SSE 13 17 7 9 1009.9 1009.7 0.0
21/06:00am 21.2 22.3 19.7 91 1.0 SSE 13 17 7 9 1009.5 1009.3 0.0
21/05:30am 21.5 22.7 19.8 90 1.1 SSE 13 17 7 9 1009.2 1009.0 0.0
21/05:00am 21.6 23.2 19.9 90 1.1 SSE 11 17 6 9 1008.9 1008.7 0.0
21/04:30am 21.4 22.9 19.7 90 1.1 S 11 15 6 8 1008.7 1008.5 0.0
21/04:00am 21.8 22.9 19.7 88 1.3 S 13 15 7 8 1008.5 1008.3 0.0
21/03:30am 22.3 23.5 20.0 87 1.5 S 13 17 7 9 1008.6 1008.4 0.0
21/03:00am 22.8 22.8 20.1 85 1.7 S 20 32 11 17 1008.7 1008.5 0.0
21/02:30am 23.0 22.5 20.0 83 1.9 S 22 33 12 18 1008.9 1008.7 0.0
21/02:00am 23.0 22.6 20.1 84 1.9 S 22 30 12 16 1009.2 1009.0 0.0
21/01:30am 23.2 22.8 20.2 83 1.9 S 22 33 12 18 1009.3 1009.1 0.0
21/01:00am 23.4 23.4 20.2 82 2.1 S 20 30 11 16 1009.6 1009.4 0.0
21/12:30am 23.7 24.0 20.4 82 2.1 S 19 26 10 14 1009.7 1009.5 0.0
21/12:00am 23.7 23.3 20.2 81 2.3 S 22 35 12 19 1010.0 1009.8 0.0
 
Date/Time
WST
Temp
°C
App
Temp
°C
Dew
Point
°C
Rel
Hum
%
Delta-T
°C
Wind Press
QNH
hPa
Press
MSL
hPa
Rain since
9am
mm
Dir  Spd
km/h
Gust
km/h
Spd
kts
Gust
kts
20/11:30pm 23.9 22.9 20.4 81 2.3 S 26 33 14 18 1010.1 1009.9 0.0
20/11:00pm 24.1 22.8 20.6 81 2.3 S 28 39 15 21 1010.3 1010.1 0.0
20/10:30pm 24.3 23.4 20.6 80 2.4 S 26 35 14 19 1010.3 1010.1 0.0
20/10:00pm 24.3 23.4 20.6 80 2.4 SSW 26 33 14 18 1010.4 1010.2 0.0
20/09:30pm 24.4 22.7 20.5 79 2.5 S 30 39 16 21 1010.3 1010.1 0.0
20/09:00pm 24.6 22.9 20.5 78 2.7 S 30 43 16 23 1009.9 1009.7 0.0
20/08:30pm 25.0 23.3 20.5 76 2.9 SSW 30 41 16 22 1009.8 1009.6 0.0
20/08:00pm 25.2 23.6 20.0 73 3.4 SSW 28 39 15 21 1009.6 1009.4 0.0
20/07:30pm 25.7 23.7 20.0 71 3.7 SSW 30 39 16 21 1009.3 1009.1 0.0
20/07:00pm 26.6 24.0 19.5 65 4.6 SSW 32 43 17 23 1009.0 1008.8 0.0
20/06:30pm 27.9 25.5 19.1 58 5.7 SSW 30 43 16 23 1008.6 1008.4 0.0
20/06:00pm 28.9 26.0 19.2 55 6.3 SSW 33 43 18 23 1008.6 1008.4 0.0
20/05:30pm 30.3 28.6 19.0 50 7.3 SSW 26 37 14 20 1008.5 1008.3 0.0
20/05:00pm 30.4 28.3 19.7 52 7.0 SSW 30 37 16 20 1008.3 1008.1 0.0
20/04:30pm 30.7 27.6 18.4 47 7.9 SSW 32 43 17 23 1008.2 1008.0 0.0
20/04:00pm 31.0 27.7 18.0 45 8.4 S 32 43 17 23 1008.4 1008.2 0.0
20/03:30pm 31.6 28.3 17.9 44 8.8 SSW 32 46 17 25 1008.6 1008.4 0.0
20/03:00pm 31.6 27.9 17.5 43 9.0 SSW 33 44 18 24 1008.9 1008.7 0.0
20/02:30pm 32.6 30.2 19.1 44 8.8 SSW 30 48 16 26 1009.0 1008.8 0.0
20/02:28pm 32.0 29.2 18.2 43 8.9 SSW 30 48 16 26 1009.1 1008.9 0.0
20/02:00pm 31.7 28.4 17.9 43 8.9 S 32 43 17 23 1009.3 1009.1 0.0
20/01:30pm 31.7 28.4 17.9 43 8.9 SSW 32 44 17 24 1009.6 1009.4 0.0
20/01:00pm 31.4 28.1 18.0 44 8.6 S 32 44 17 24 1009.7 1009.5 0.0
20/12:30pm 31.2 27.8 18.2 46 8.4 S 33 46 18 25 1009.8 1009.6 0.0
20/12:00pm 31.2 28.7 18.9 48 8.0 S 30 44 16 24 1010.1 1009.9 0.0
20/11:30am 30.9 28.5 18.3 47 8.1 S 28 39 15 21 1010.5 1010.3 0.0
20/11:00am 30.2 28.1 18.0 48 7.8 S 26 37 14 20 1010.9 1010.7 0.0
20/10:30am 29.6 27.9 19.0 53 6.9 SSW 26 37 14 20 1011.3 1011.1 0.0
20/10:00am 29.3 27.6 19.0 53 6.7 SSW 26 35 14 19 1011.3 1011.1 0.0
20/09:30am 28.0 25.8 19.5 60 5.5 SSW 30 43 16 23 1011.4 1011.2 0.0
20/09:00am 27.3 25.4 19.4 62 5.1 SSW 28 37 15 20 1011.5 1011.3 0.0
20/08:30am 26.9 25.7 19.3 63 4.9 SSW 24 33 13 18 1011.3 1011.1 0.0
20/08:00am 25.7 24.8 19.1 67 4.2 S 22 32 12 17 1011.5 1011.3 0.0
20/07:30am 26.0 25.6 19.4 67 4.3 S 20 32 11 17 1011.3 1011.1 0.0
20/07:00am 25.7 26.9 19.8 70 3.8 SSE 13 20 7 11 1011.1 1010.9 0.0
20/06:30am 23.6 25.9 19.9 80 2.4 S 7 9 4 5 1010.8 1010.6 0.0
20/06:00am 22.7 24.8 19.3 81 2.2 SSE 7 9 4 5 1010.5 1010.3 0.0
20/05:30am 22.9 24.2 19.3 80 2.3 S 11 15 6 8 1010.2 1010.0 0.0
20/05:00am 23.4 24.3 19.3 78 2.6 S 13 20 7 11 1010.0 1009.8 0.0
20/04:30am 23.7 25.0 19.4 77 2.8 S 11 15 6 8 1010.0 1009.8 0.0
20/04:00am 23.7 23.3 19.4 77 2.8 S 20 30 11 16 1010.1 1009.9 0.0
20/03:30am 23.5 23.3 19.4 78 2.6 S 19 28 10 15 1010.1 1009.9 0.0
20/03:00am 23.9 24.1 19.4 76 2.9 S 17 24 9 13 1010.0 1009.8 0.0
20/02:30am 24.0 23.9 19.5 76 2.9 S 19 28 10 15 1010.0 1009.8 0.0
20/02:00am 24.1 23.8 19.2 74 3.1 S 19 26 10 14 1009.9 1009.7 0.0
20/01:30am 24.7 25.0 19.5 73 3.3 S 17 24 9 13 1010.1 1009.9 0.0
20/01:00am 24.6 24.2 19.4 73 3.3 S 20 28 11 15 1010.3 1010.1 0.0
20/12:30am 24.8 25.0 20.1 75 3.1 SSW 19 24 10 13 1010.4 1010.2 0.0
20/12:00am 24.6 24.8 20.5 78 2.7 SSW 20 28 11 15 1010.8 1010.6 0.0
 
Date/Time
WST
Temp
°C
App
Temp
°C
Dew
Point
°C
Rel
Hum
%
Delta-T
°C
Wind Press
QNH
hPa
Press
MSL
hPa
Rain since
9am
mm
Dir  Spd
km/h
Gust
km/h
Spd
kts
Gust
kts
19/11:30pm 24.3 24.6 20.8 81 2.3 S 20 28 11 15 1010.4 1010.2 0.0
19/11:00pm 24.4 24.4 20.9 81 2.3 SSW 22 30 12 16 1010.1 1009.9 0.0
19/10:30pm 24.5 25.1 21.0 81 2.3 SSW 19 28 10 15 1010.1 1009.9 0.0
19/10:00pm 24.6 25.0 20.9 80 2.4 SSW 20 28 11 15 1010.1 1009.9 0.0
19/09:30pm 24.8 25.2 20.9 79 2.6 SSW 20 30 11 16 1010.2 1010.0 0.0
19/09:00pm 25.0 25.5 21.1 79 2.6 SSW 20 30 11 16 1010.1 1009.9 0.0
19/08:30pm 25.5 25.5 21.0 76 3.0 SSW 22 30 12 16 1009.8 1009.6 0.0
19/08:00pm 26.0 25.4 20.6 72 3.5 SW 24 30 13 16 1009.7 1009.5 0.0
19/07:30pm 26.6 26.3 20.4 69 4.1 SSW 22 30 12 16 1009.3 1009.1 0.0
19/07:00pm 27.5 27.2 20.3 65 4.7 SSW 22 30 12 16 1009.1 1008.9 0.0
19/06:30pm 28.4 28.2 21.2 65 4.8 SSW 24 33 13 18 1008.7 1008.5 0.0
19/06:00pm 28.4 26.9 20.9 64 5.0 SW 30 37 16 20 1008.5 1008.3 0.0
19/05:30pm 29.0 26.8 20.7 61 5.5 SW 33 44 18 24 1008.3 1008.1 0.0
19/05:00pm 29.5 27.2 20.6 58 5.9 SW 33 44 18 24 1008.2 1008.0 0.0
19/04:30pm 31.0 28.9 20.6 54 6.9 SW 32 43 17 23 1008.3 1008.1 0.0
19/04:00pm 31.3 28.9 19.9 50 7.5 SW 32 39 17 21 1008.3 1008.1 0.0
19/03:30pm 31.6 28.7 18.9 47 8.3 SW 32 39 17 21 1008.4 1008.2 0.0
19/03:00pm 32.0 30.0 19.9 48 8.0 SW 30 39 16 21 1008.4 1008.2 0.0
19/02:30pm 32.9 30.8 19.7 45 8.7 SW 30 39 16 21 1008.4 1008.2 0.0
19/02:00pm 33.4 32.0 20.5 46 8.6 SW 28 37 15 20 1008.5 1008.3 0.0
19/01:30pm 32.8 31.8 21.3 50 7.8 SW 28 37 15 20 1008.5 1008.3 0.0
19/01:00pm 32.6 31.7 21.5 52 7.5 SW 28 39 15 21 1008.6 1008.4 0.0
19/12:30pm 31.7 31.4 21.8 55 6.7 SW 26 35 14 19 1008.7 1008.5 0.0
19/12:00pm 31.6 31.0 22.0 56 6.5 SW 28 35 15 19 1008.8 1008.6 0.0
19/11:30am 31.9 32.1 22.0 55 6.7 SW 24 33 13 18 1009.0 1008.8 0.0
19/11:00am 32.1 33.7 22.8 58 6.4 SW 19 26 10 14 1009.5 1009.3 0.0
19/10:30am 31.2 31.0 20.5 53 7.1 SW 22 30 12 16 1009.5 1009.3 0.0
19/10:00am 30.9 31.8 21.9 58 6.1 SSW 20 26 11 14 1009.6 1009.4 0.0
19/09:30am 29.7 30.8 22.4 65 5.0 SW 20 28 11 15 1009.6 1009.4 0.0
19/09:00am 29.4 30.8 22.6 67 4.6 SW 19 26 10 14 1009.9 1009.7 0.0
19/08:30am 28.5 30.2 22.3 69 4.2 SSW 17 22 9 12 1010.0 1009.8 0.0
19/08:00am 27.8 29.5 23.0 75 3.3 SSW 19 26 10 14 1010.2 1010.0 0.0
19/07:30am 27.6 29.3 23.0 76 3.1 SSW 19 24 10 13 1009.9 1009.7 0.0
19/07:00am 26.9 29.4 23.8 83 2.1 SSW 17 20 9 11 1009.8 1009.6 0.0
19/06:30am 26.0 30.1 23.9 88 1.4 SW 9 13 5 7 1009.6 1009.4 0.0
19/06:00am 25.5 29.0 23.6 89 1.3 SW 11 15 6 8 1009.4 1009.2 0.0

Other formats

Comma delimited format used in spreadsheet applications
http://www.bom.gov.au/fwo/IDW60801/IDW60801.95402.axf

JavaScript Object Notation format (JSON) in row-major order
http://www.bom.gov.au/fwo/IDW60801/IDW60801.95402.json

Data quality

Most of these data are generated automatically and are frequently updated. Quality checks on data are not normally performed. It is possible for incorrect values to appear. Refer to information at About Latest Weather Observations and please check the disclaimer before using these data.